Vitarte, Peru
Current Conditions -  °F | °C
As of 3:00 PM on Sunday 23 Nov 2014 (Local Time) from SPIM Reporting Station
Overcast Overcast  
Wind Chill: 68°   Ceiling: 3000
Heat Index: 68°   Visibility: 6mi
Dew Point: 61°   Wind: 9mph
Humidity: 78%   Direction: 310°NW
Pressure: 29.88"   Gusts: NA
Location:  12.04°S, 76.93°W
Report Text: SPIM 232000Z 31008KT 9999 OVC030 20/16 Q1012 NOSIG RMK PP000
Loading
Personal Weather Stations






























Interactive Weather Map New forecast layout! Learn more

10-Day Weather Forecast

Advertisements
Track Severe Weather on mobile